Metar z pełnej godziny Komunikat METAR ze strony awiacja.imgw.pl Metar G00 EPMO METAR EPMO 230400Z 16007KT 130V190 6000 -RA BKN020 07/06 Q0994 =